createdAt,value
2022-10-10T00:01:29.240Z,1.30
2022-10-10T00:03:58.054Z,1.57
2022-10-10T00:06:31.774Z,1.17
2022-10-10T00:09:02.908Z,1.40
2022-10-10T00:11:31.463Z,1.50
2022-10-10T00:14:00.418Z,1.40
2022-10-10T00:16:29.283Z,1.30
2022-10-10T00:18:57.847Z,1.43
2022-10-10T00:21:26.286Z,1.23
2022-10-10T00:23:54.853Z,1.50
2022-10-10T00:26:24.834Z,1.30
2022-10-10T00:28:53.239Z,1.10
2022-10-10T00:31:21.796Z,1.20
2022-10-10T00:33:50.365Z,1.13
2022-10-10T00:36:20.572Z,1.40
2022-10-10T00:38:49.478Z,1.43
2022-10-10T00:41:18.098Z,1.00
2022-10-10T00:44:01.346Z,1.20
2022-10-10T00:46:31.531Z,1.20
2022-10-10T00:49:00.041Z,1.10
2022-10-10T00:51:28.583Z,1.13
2022-10-10T00:53:58.702Z,1.20
2022-10-10T00:56:29.730Z,1.10
2022-10-10T00:58:58.741Z,0.90
2022-10-10T01:01:27.383Z,1.07
2022-10-10T01:03:58.789Z,1.17
2022-10-10T01:06:27.395Z,0.87
2022-10-10T01:08:56.722Z,0.90
2022-10-10T01:11:39.841Z,1.13
2022-10-10T01:14:14.609Z,1.00
2022-10-10T01:16:47.393Z,1.10
2022-10-10T01:19:26.830Z,1.20
2022-10-10T01:22:00.509Z,1.13
2022-10-10T01:24:39.309Z,1.23
2022-10-10T01:27:13.059Z,1.20
2022-10-10T01:29:44.651Z,1.20
2022-10-10T01:32:16.075Z,2.20
2022-10-10T01:34:50.110Z,1.20
2022-10-10T01:37:19.819Z,1.10
2022-10-10T01:39:54.494Z,1.13
2022-10-10T01:42:25.815Z,1.03
2022-10-10T01:44:56.394Z,1.33
2022-10-10T01:47:24.849Z,1.13
2022-10-10T01:49:54.405Z,1.23
2022-10-10T01:52:29.893Z,1.37
2022-10-10T01:55:05.206Z,1.43
2022-10-10T01:57:36.027Z,0.90
2022-10-10T02:00:08.242Z,1.10
2022-10-10T02:02:43.855Z,1.10
2022-10-10T02:05:16.882Z,1.40
2022-10-10T02:07:48.009Z,1.00
2022-10-10T02:10:19.074Z,1.20
2022-10-10T02:12:49.365Z,1.23
2022-10-10T02:15:21.849Z,1.17
2022-10-10T02:17:50.886Z,1.27
2022-10-10T02:20:21.127Z,1.60
2022-10-10T02:22:52.327Z,0.97
2022-10-10T02:25:23.640Z,1.00
2022-10-10T02:27:55.817Z,1.27
2022-10-10T02:30:25.850Z,1.30
2022-10-10T02:32:58.189Z,1.63
2022-10-10T02:35:28.719Z,1.03
2022-10-10T02:37:57.506Z,1.13
2022-10-10T02:40:27.997Z,1.33
2022-10-10T02:42:57.725Z,1.30
2022-10-10T02:45:29.123Z,1.23
2022-10-10T02:47:57.681Z,1.30
2022-10-10T02:50:26.122Z,1.30
2022-10-10T02:52:57.067Z,1.37
2022-10-10T02:55:25.522Z,1.13
2022-10-10T02:57:54.013Z,1.30
2022-10-10T03:00:22.911Z,1.10
2022-10-10T03:02:53.075Z,1.30
2022-10-10T03:05:21.849Z,1.10
2022-10-10T03:07:50.671Z,1.10
2022-10-10T03:10:19.257Z,1.40
2022-10-10T03:12:47.806Z,1.37
2022-10-10T03:15:16.593Z,1.37
2022-10-10T03:17:45.263Z,2.00
2022-10-10T03:20:15.093Z,1.30
2022-10-10T03:22:43.574Z,1.10
2022-10-10T03:25:12.122Z,1.13
2022-10-10T03:27:40.601Z,1.40
2022-10-10T03:30:09.597Z,1.53
2022-10-10T03:32:38.153Z,1.10
2022-10-10T03:35:06.911Z,1.27
2022-10-10T03:37:36.811Z,1.37
2022-10-10T03:40:05.506Z,1.40
2022-10-10T03:42:33.945Z,1.87
2022-10-10T03:45:02.498Z,1.33
2022-10-10T03:47:31.107Z,1.77
2022-10-10T03:49:59.562Z,1.20
2022-10-10T03:52:28.110Z,1.27
2022-10-10T03:54:58.373Z,2.70
2022-10-10T03:57:26.786Z,1.73
2022-10-10T03:59:55.314Z,1.20
2022-10-10T04:02:24.010Z,1.33
2022-10-10T04:04:52.445Z,1.77
2022-10-10T04:07:21.150Z,1.30
2022-10-10T04:09:49.687Z,1.57
2022-10-10T04:12:19.535Z,1.57
2022-10-10T04:14:48.182Z,1.43
2022-10-10T04:17:17.262Z,1.30
2022-10-10T04:19:45.689Z,1.40
2022-10-10T04:22:14.666Z,1.50
2022-10-10T04:24:43.161Z,1.50
2022-10-10T04:27:11.815Z,1.40
2022-10-10T04:29:41.859Z,1.57
2022-10-10T04:32:10.291Z,1.43
2022-10-10T04:34:38.898Z,1.50
2022-10-10T04:37:07.421Z,1.33
2022-10-10T04:39:35.866Z,1.30
2022-10-10T04:42:04.410Z,1.57
2022-10-10T04:44:33.195Z,1.50
2022-10-10T04:47:03.115Z,1.43
2022-10-10T04:49:31.561Z,1.40
2022-10-10T04:52:02.366Z,1.67
2022-10-10T04:54:30.910Z,1.90
2022-10-10T04:56:59.331Z,1.50
2022-10-10T04:59:28.216Z,1.40
2022-10-10T05:02:01.349Z,1.60
2022-10-10T05:04:31.794Z,2.07
2022-10-10T05:07:00.235Z,1.40
2022-10-10T05:09:28.679Z,1.80
2022-10-10T05:11:57.334Z,1.47
2022-10-10T05:14:25.764Z,1.70
2022-10-10T05:16:54.324Z,1.80
2022-10-10T05:19:22.977Z,1.67
2022-10-10T05:21:52.825Z,1.67
2022-10-10T05:24:21.378Z,1.60
2022-10-10T05:26:50.026Z,1.47
2022-10-10T05:29:18.425Z,1.83
2022-10-10T05:31:46.854Z,1.53
2022-10-10T05:34:15.869Z,1.70
2022-10-10T05:36:44.317Z,1.70
2022-10-10T05:39:14.155Z,1.70
2022-10-10T05:41:42.913Z,1.70
2022-10-10T05:44:11.714Z,1.70
2022-10-10T05:46:40.117Z,1.50
2022-10-10T05:49:08.916Z,1.73
2022-10-10T05:51:37.362Z,1.90
2022-10-10T05:54:06.373Z,1.90
2022-10-10T05:56:36.407Z,1.40
2022-10-10T05:59:05.413Z,1.80
2022-10-10T06:01:34.163Z,1.60
2022-10-10T06:04:02.786Z,1.70
2022-10-10T06:06:31.229Z,1.93
2022-10-10T06:09:00.175Z,1.80
2022-10-10T06:11:29.486Z,3.20
2022-10-10T06:13:59.285Z,1.53
2022-10-10T06:16:28.887Z,1.80
2022-10-10T06:18:58.072Z,1.37
2022-10-10T06:21:26.918Z,1.40
2022-10-10T06:23:55.362Z,1.40
2022-10-10T06:26:24.130Z,1.97
2022-10-10T06:28:52.541Z,1.70
2022-10-10T06:31:22.379Z,1.63
2022-10-10T06:33:53.366Z,1.80
2022-10-10T06:36:21.834Z,1.93
2022-10-10T06:38:50.250Z,1.73
2022-10-10T06:41:18.882Z,1.70
2022-10-10T06:43:49.085Z,1.90
2022-10-10T06:46:17.494Z,1.83
2022-10-10T06:48:47.536Z,1.60
2022-10-10T06:51:16.871Z,1.70
2022-10-10T06:53:45.591Z,1.60
2022-10-10T06:56:17.969Z,1.90
2022-10-10T06:58:46.441Z,1.80
2022-10-10T07:01:15.129Z,2.03
2022-10-10T07:03:43.734Z,2.13
2022-10-10T07:06:14.133Z,1.50
2022-10-10T07:08:43.190Z,1.90
2022-10-10T07:11:12.022Z,1.80
2022-10-10T07:13:40.498Z,1.73
2022-10-10T07:16:09.182Z,2.20
2022-10-10T07:18:37.922Z,2.20
2022-10-10T07:21:06.906Z,1.63
2022-10-10T07:23:37.281Z,1.67
2022-10-10T07:26:06.782Z,1.63
2022-10-10T07:28:35.724Z,1.70
2022-10-10T07:31:05.635Z,1.50
2022-10-10T07:33:34.519Z,2.20
2022-10-10T07:36:02.963Z,1.83
2022-10-10T07:38:31.514Z,1.80
2022-10-10T07:41:01.523Z,1.73
2022-10-10T07:43:29.977Z,1.93
2022-10-10T07:45:58.565Z,1.90
2022-10-10T07:48:27.242Z,2.07
2022-10-10T07:50:55.667Z,1.70
2022-10-10T07:53:24.170Z,1.43
2022-10-10T07:55:52.769Z,2.10
2022-10-10T07:58:22.555Z,1.73
2022-10-10T08:00:50.999Z,1.80
2022-10-10T08:03:19.574Z,1.80
2022-10-10T08:05:48.066Z,1.60
2022-10-10T08:08:16.507Z,1.63
2022-10-10T08:10:45.518Z,1.70
2022-10-10T08:13:13.956Z,1.93
2022-10-10T08:15:43.826Z,1.70
2022-10-10T08:18:12.541Z,1.60
2022-10-10T08:20:41.013Z,1.50
2022-10-10T08:23:09.439Z,1.60
2022-10-10T08:25:38.010Z,1.80
2022-10-10T08:28:06.734Z,2.07
2022-10-10T08:30:35.182Z,1.60
2022-10-10T08:33:05.245Z,2.00
2022-10-10T08:35:33.657Z,1.63
2022-10-10T08:38:02.077Z,1.83
2022-10-10T08:40:30.721Z,1.73
2022-10-10T08:43:03.929Z,1.70
2022-10-10T08:45:34.994Z,1.60
2022-10-10T08:48:06.847Z,1.50
2022-10-10T08:50:37.741Z,1.70
2022-10-10T08:53:09.268Z,1.60
2022-10-10T08:55:39.994Z,1.73
2022-10-10T08:58:09.782Z,1.90
2022-10-10T09:00:40.993Z,1.87
2022-10-10T09:03:16.695Z,1.80
2022-10-10T09:05:51.583Z,1.87
2022-10-10T09:08:27.172Z,1.80
2022-10-10T09:10:58.536Z,1.60
2022-10-10T09:13:33.211Z,1.50
2022-10-10T09:16:03.491Z,1.73
2022-10-10T09:18:41.382Z,1.77
2022-10-10T09:21:16.302Z,1.90
2022-10-10T09:23:48.058Z,1.73
2022-10-10T09:26:17.671Z,1.70
2022-10-10T09:28:47.345Z,2.00
2022-10-10T09:31:18.694Z,1.30
2022-10-10T09:33:51.891Z,1.50
2022-10-10T09:36:22.144Z,1.50
2022-10-10T09:38:52.406Z,1.47
2022-10-10T09:41:22.786Z,1.60
2022-10-10T09:43:56.817Z,1.73
2022-10-10T09:46:25.433Z,1.60
2022-10-10T09:48:56.111Z,1.63
2022-10-10T09:51:24.692Z,1.50
2022-10-10T09:53:53.284Z,1.47
2022-10-10T09:56:23.449Z,2.20
2022-10-10T09:58:52.745Z,1.37
2022-10-10T10:01:22.858Z,1.30
2022-10-10T10:04:27.713Z,1.63
2022-10-10T10:07:05.925Z,1.30
2022-10-10T10:09:34.588Z,1.80
2022-10-10T10:12:03.106Z,1.50
2022-10-10T10:14:32.605Z,1.40
2022-10-10T10:17:07.813Z,1.40
2022-10-10T10:19:37.449Z,1.50
2022-10-10T10:22:07.738Z,1.30
2022-10-10T10:24:37.485Z,1.50
2022-10-10T10:27:12.887Z,1.67
2022-10-10T10:29:48.205Z,1.40
2022-10-10T10:32:20.849Z,1.50
2022-10-10T10:34:54.313Z,1.67
2022-10-10T10:37:25.751Z,1.37
2022-10-10T10:40:01.894Z,1.43
2022-10-10T10:42:37.830Z,1.40
2022-10-10T10:45:10.762Z,1.43
2022-10-10T10:47:44.007Z,1.30
2022-10-10T10:50:26.470Z,1.50
2022-10-10T10:53:00.937Z,1.50
2022-10-10T10:55:39.401Z,1.50
2022-10-10T11:01:38.699Z,1.43
2022-10-10T11:05:16.533Z,1.60
2022-10-10T11:07:18.482Z,1.40
2022-10-10T11:09:53.134Z,1.43
2022-10-10T11:12:25.892Z,1.47
2022-10-10T11:14:58.105Z,1.57
2022-10-10T11:17:36.232Z,1.80
2022-10-10T11:20:09.240Z,1.30
2022-10-10T11:22:40.238Z,1.83
2022-10-10T11:25:16.354Z,1.70
2022-10-10T11:27:47.886Z,1.43
2022-10-10T11:30:17.855Z,1.63
2022-10-10T11:32:49.666Z,1.23
2022-10-10T11:35:26.065Z,1.40
2022-10-10T11:37:56.553Z,1.27
2022-10-10T11:40:31.385Z,1.40
2022-10-10T11:43:04.639Z,1.70
2022-10-10T11:45:34.556Z,1.27
2022-10-10T11:48:05.399Z,1.40
2022-10-10T11:50:36.099Z,1.70
2022-10-10T11:53:07.867Z,1.40
2022-10-10T11:55:40.194Z,1.60
2022-10-10T11:58:26.673Z,1.50
2022-10-10T12:00:57.839Z,1.60
2022-10-10T12:03:26.579Z,1.43
2022-10-10T12:05:57.468Z,2.00
2022-10-10T12:08:27.958Z,1.63
2022-10-10T12:11:00.415Z,1.40
2022-10-10T12:13:31.321Z,1.17
2022-10-10T12:16:03.785Z,1.43
2022-10-10T12:18:34.253Z,1.50
2022-10-10T12:21:07.813Z,1.87
2022-10-10T12:23:36.420Z,2.27
2022-10-10T12:26:06.565Z,1.53
2022-10-10T12:28:58.458Z,1.77
2022-10-10T12:31:30.814Z,1.20
2022-10-10T12:34:12.741Z,1.60
2022-10-10T12:36:55.286Z,1.50
2022-10-10T12:39:50.178Z,1.53
2022-10-10T12:42:33.429Z,1.47
2022-10-10T12:45:03.606Z,1.60
2022-10-10T12:47:59.825Z,1.30
2022-10-10T12:50:25.126Z,1.30
2022-10-10T12:52:54.952Z,1.60
2022-10-10T12:55:24.591Z,1.20
2022-10-10T12:57:54.665Z,1.40
2022-10-10T13:00:25.406Z,1.30
2022-10-10T13:02:56.350Z,1.70
2022-10-10T13:05:27.812Z,1.20
2022-10-10T13:07:58.070Z,1.30
2022-10-10T13:10:27.520Z,1.50
2022-10-10T13:13:02.610Z,1.30
2022-10-10T13:15:32.994Z,1.30
2022-10-10T13:18:01.587Z,1.23
2022-10-10T13:20:35.819Z,1.20
2022-10-10T13:23:05.952Z,1.33
2022-10-10T13:25:35.722Z,1.60
2022-10-10T13:28:04.564Z,1.33
2022-10-10T13:30:34.538Z,1.13
2022-10-10T13:33:03.219Z,1.20
2022-10-10T13:35:32.505Z,1.30
2022-10-10T13:38:02.290Z,1.30
2022-10-10T13:40:30.821Z,1.20
2022-10-10T13:42:59.408Z,1.10
2022-10-10T13:45:31.377Z,1.10
2022-10-10T13:48:14.162Z,1.20
2022-10-10T13:50:53.757Z,1.30
2022-10-10T13:53:35.850Z,1.20
2022-10-10T13:56:07.357Z,1.30
2022-10-10T13:58:42.820Z,1.50
2022-10-10T14:01:32.247Z,1.37
2022-10-10T14:04:04.709Z,1.40
2022-10-10T14:06:33.370Z,1.23
2022-10-10T14:09:07.318Z,1.37
2022-10-10T14:11:35.949Z,2.33
2022-10-10T14:14:07.007Z,1.43
2022-10-10T14:16:35.662Z,1.37
2022-10-10T14:19:05.466Z,1.40
2022-10-10T14:21:33.993Z,1.40
2022-10-10T14:24:02.755Z,1.37
2022-10-10T14:26:31.698Z,1.80
2022-10-10T14:29:00.134Z,1.30
2022-10-10T14:31:29.050Z,1.53
2022-10-10T14:33:57.669Z,1.43
2022-10-10T14:36:27.489Z,1.43
2022-10-10T14:38:56.142Z,1.30
2022-10-10T14:41:24.648Z,1.67
2022-10-10T14:43:53.075Z,1.20
2022-10-10T14:46:22.065Z,1.33
2022-10-10T14:48:50.483Z,1.40
2022-10-10T14:51:34.519Z,1.57
2022-10-10T14:54:11.742Z,1.70
2022-10-10T14:57:08.316Z,1.30
2022-10-10T14:59:45.981Z,1.40
2022-10-10T15:02:17.120Z,1.37
2022-10-10T15:04:45.985Z,1.40
2022-10-10T15:07:15.344Z,1.60
2022-10-10T15:10:09.719Z,1.80
2022-10-10T15:12:34.744Z,1.90
2022-10-10T15:15:03.214Z,1.23
2022-10-10T15:17:34.312Z,1.70
2022-10-10T15:20:03.128Z,1.73
2022-10-10T15:22:32.095Z,1.60
2022-10-10T15:25:02.222Z,1.60
2022-10-10T15:27:32.807Z,1.87
2022-10-10T15:30:01.439Z,1.50
2022-10-10T15:32:29.935Z,1.73
2022-10-10T15:34:58.737Z,1.80
2022-10-10T15:37:28.128Z,1.90
2022-10-10T15:39:57.024Z,1.43
2022-10-10T15:42:27.209Z,1.60
2022-10-10T15:44:56.854Z,1.70
2022-10-10T15:47:25.488Z,1.70
2022-10-10T15:49:54.138Z,2.50
2022-10-10T15:52:24.883Z,1.60
2022-10-10T15:54:53.331Z,2.00
2022-10-10T15:57:23.089Z,1.70
2022-10-10T15:59:52.905Z,2.03
2022-10-10T16:02:21.337Z,1.50
2022-10-10T16:04:49.999Z,1.43
2022-10-10T16:07:29.234Z,1.90
2022-10-10T16:10:01.375Z,1.87
2022-10-10T16:12:29.834Z,1.80
2022-10-10T16:15:03.382Z,2.00
2022-10-10T16:17:34.775Z,2.33
2022-10-10T16:20:03.308Z,1.93
2022-10-10T16:22:33.281Z,1.77
2022-10-10T16:25:22.386Z,1.97
2022-10-10T16:27:50.650Z,2.10
2022-10-10T16:30:21.238Z,1.80
2022-10-10T16:32:49.877Z,2.20
2022-10-10T16:35:18.548Z,2.07
2022-10-10T16:37:47.101Z,2.10
2022-10-10T16:40:16.538Z,2.00
2022-10-10T16:42:45.183Z,2.00
2022-10-10T16:45:14.214Z,1.80
2022-10-10T16:47:44.018Z,2.10
2022-10-10T16:50:12.578Z,2.23
2022-10-10T16:52:41.780Z,2.13
2022-10-10T16:55:11.402Z,2.00
2022-10-10T16:57:40.259Z,1.97
2022-10-10T17:00:10.485Z,2.50
2022-10-10T17:02:42.241Z,2.10
2022-10-10T17:05:12.689Z,2.30
2022-10-10T17:07:41.113Z,2.10
2022-10-10T17:10:09.921Z,2.20
2022-10-10T17:12:38.699Z,2.50
2022-10-10T17:15:07.878Z,2.63
2022-10-10T17:17:36.643Z,2.23
2022-10-10T17:20:05.877Z,2.03
2022-10-10T17:22:35.910Z,2.27
2022-10-10T17:25:04.351Z,2.43
2022-10-10T17:27:35.185Z,2.30
2022-10-10T17:30:03.785Z,2.43
2022-10-10T17:32:32.197Z,2.60
2022-10-10T17:35:00.921Z,2.70
2022-10-10T17:37:29.519Z,2.70
2022-10-10T17:39:59.363Z,2.80
2022-10-10T17:42:28.188Z,3.60
2022-10-10T17:44:59.388Z,3.00
2022-10-10T17:47:28.277Z,3.30
2022-10-10T17:49:56.977Z,3.03
2022-10-10T17:52:25.987Z,3.17
2022-10-10T17:54:54.439Z,3.77
2022-10-10T17:57:24.816Z,3.10
2022-10-10T17:59:53.306Z,3.40
2022-10-10T18:02:21.751Z,3.23
2022-10-10T18:04:50.356Z,3.30
2022-10-10T18:07:19.202Z,3.83
2022-10-10T18:09:47.866Z,3.20
2022-10-10T18:12:16.645Z,3.30
2022-10-10T18:14:46.672Z,3.27
2022-10-10T18:17:15.129Z,3.53
2022-10-10T18:19:43.957Z,2.93
2022-10-10T18:22:12.430Z,3.23
2022-10-10T18:24:40.912Z,2.90
2022-10-10T18:27:09.599Z,3.20
2022-10-10T18:29:39.719Z,3.37
2022-10-10T18:32:09.730Z,3.17
2022-10-10T18:34:38.437Z,3.07
2022-10-10T18:37:07.233Z,3.40
2022-10-10T18:39:37.346Z,2.73
2022-10-10T18:42:06.458Z,2.97
2022-10-10T18:44:35.122Z,2.40
2022-10-10T18:47:03.618Z,2.50
2022-10-10T18:49:33.745Z,2.60
2022-10-10T18:52:03.016Z,2.30
2022-10-10T18:54:33.110Z,2.13
2022-10-10T18:57:01.946Z,2.43
2022-10-10T18:59:32.111Z,2.47
2022-10-10T19:02:00.610Z,2.70
2022-10-10T19:04:29.221Z,2.60
2022-10-10T19:06:59.021Z,2.80
2022-10-10T19:09:27.867Z,2.77
2022-10-10T19:11:56.733Z,2.53
2022-10-10T19:14:25.477Z,2.50
2022-10-10T19:16:54.043Z,2.70
2022-10-10T19:19:22.918Z,2.90
2022-10-10T19:21:51.490Z,3.17
2022-10-10T19:24:22.466Z,2.50
2022-10-10T19:26:53.473Z,2.27
2022-10-10T19:29:22.218Z,2.43
2022-10-10T19:31:50.714Z,2.33
2022-10-10T19:34:19.526Z,2.13
2022-10-10T19:36:47.959Z,2.30
2022-10-10T19:39:16.432Z,1.87
2022-10-10T19:41:46.485Z,2.03
2022-10-10T19:44:14.923Z,2.43
2022-10-10T19:46:43.367Z,2.10
2022-10-10T19:49:12.386Z,2.37
2022-10-10T19:51:40.818Z,2.23
2022-10-10T19:54:09.271Z,1.93
2022-10-10T19:56:38.190Z,2.23
2022-10-10T19:59:08.021Z,2.00
2022-10-10T20:01:36.504Z,1.80
2022-10-10T20:04:05.194Z,1.80
2022-10-10T20:06:33.617Z,3.20
2022-10-10T20:09:02.221Z,1.57
2022-10-10T20:11:31.710Z,1.50
2022-10-10T20:14:00.189Z,1.33
2022-10-10T20:16:30.093Z,1.40
2022-10-10T20:18:59.444Z,1.40
2022-10-10T20:21:31.520Z,1.30
2022-10-10T20:24:00.438Z,1.67
2022-10-10T20:26:29.054Z,1.33
2022-10-10T20:28:58.403Z,1.30
2022-10-10T20:31:28.046Z,1.20
2022-10-10T20:34:00.714Z,1.30
2022-10-10T20:36:29.949Z,1.23
2022-10-10T20:38:59.064Z,1.17
2022-10-10T20:41:28.594Z,1.17
2022-10-10T20:43:58.353Z,1.57
2022-10-10T20:46:27.672Z,1.20
2022-10-10T20:48:56.185Z,1.20
2022-10-10T20:51:26.839Z,1.23
2022-10-10T20:53:57.111Z,1.10
2022-10-10T20:56:25.866Z,1.40
2022-10-10T20:58:54.703Z,1.40
2022-10-10T21:01:24.590Z,1.40
2022-10-10T21:03:53.285Z,1.00
2022-10-10T21:06:23.070Z,1.40
2022-10-10T21:08:53.179Z,1.13
2022-10-10T21:11:22.558Z,1.13
2022-10-10T21:13:54.209Z,1.40
2022-10-10T21:16:23.307Z,0.90
2022-10-10T21:18:57.437Z,0.93
2022-10-10T21:21:27.285Z,1.00
2022-10-10T21:23:57.196Z,0.90
2022-10-10T21:26:26.284Z,1.07
2022-10-10T21:28:55.410Z,1.00
2022-10-10T21:31:25.256Z,0.80
2022-10-10T21:33:54.150Z,0.70
2022-10-10T21:36:23.473Z,1.07
2022-10-10T21:38:51.950Z,0.97
2022-10-10T21:41:22.386Z,0.80
2022-10-10T21:43:53.024Z,0.50
2022-10-10T21:46:23.392Z,1.00
2022-10-10T21:48:52.487Z,0.90
2022-10-10T21:51:21.380Z,0.80
2022-10-10T21:53:49.862Z,0.77
2022-10-10T21:56:18.487Z,0.90
2022-10-10T21:58:48.494Z,0.80
2022-10-10T22:01:17.922Z,1.07
2022-10-10T22:03:47.589Z,0.50
2022-10-10T22:06:17.650Z,0.90
2022-10-10T22:08:46.806Z,0.80
2022-10-10T22:11:15.893Z,0.80
2022-10-10T22:13:44.489Z,0.80
2022-10-10T22:16:14.626Z,0.90
2022-10-10T22:18:43.146Z,0.80
2022-10-10T22:21:12.862Z,0.80
2022-10-10T22:23:41.309Z,0.90
2022-10-10T22:26:10.413Z,0.87
2022-10-10T22:28:39.092Z,0.87
2022-10-10T22:31:07.929Z,0.80
2022-10-10T22:33:37.815Z,0.83
2022-10-10T22:36:07.601Z,1.20
2022-10-10T22:38:38.278Z,0.67
2022-10-10T22:41:06.834Z,0.97
2022-10-10T22:43:35.458Z,0.70
2022-10-10T22:46:04.185Z,0.90
2022-10-10T22:48:32.868Z,0.90
2022-10-10T22:51:03.782Z,0.93
2022-10-10T22:53:32.382Z,0.90
2022-10-10T22:56:01.067Z,0.80
2022-10-10T22:58:31.917Z,0.90
2022-10-10T23:01:04.199Z,0.80
2022-10-10T23:03:32.730Z,1.03
2022-10-10T23:06:01.311Z,0.80
2022-10-10T23:08:31.451Z,1.03
2022-10-10T23:11:00.017Z,0.80
2022-10-10T23:13:28.567Z,0.87
2022-10-10T23:15:57.131Z,0.70
2022-10-10T23:18:25.953Z,0.80
2022-10-10T23:20:54.389Z,0.90
2022-10-10T23:23:22.895Z,0.80
2022-10-10T23:25:52.853Z,0.80
2022-10-10T23:28:21.329Z,0.70
2022-10-10T23:30:52.561Z,0.70
2022-10-10T23:33:21.146Z,0.90
2022-10-10T23:35:58.069Z,1.00
2022-10-10T23:38:26.817Z,0.87
2022-10-10T23:40:57.066Z,0.70
2022-10-10T23:43:25.625Z,1.20
2022-10-10T23:45:54.339Z,0.87
2022-10-10T23:48:23.029Z,0.80
2022-10-10T23:50:51.470Z,0.80
2022-10-10T23:53:20.091Z,0.80
2022-10-10T23:55:48.533Z,0.80
2022-10-10T23:58:18.354Z,0.90
